sensor_id;sensor_type;location;lat;lon;timestamp;pressure;altitude;pressure_sealevel;temperature;humidity
68366;BME280;55283;51.466;5.478;2022-09-23T00:00:13;101622.44;;;23.64;32.02
68366;BME280;55283;51.466;5.478;2022-09-23T00:02:39;101618.41;;;23.65;31.98
68366;BME280;55283;51.466;5.478;2022-09-23T00:05:05;101615.25;;;23.63;32.14
68366;BME280;55283;51.466;5.478;2022-09-23T00:07:30;101614.88;;;23.61;32.04
68366;BME280;55283;51.466;5.478;2022-09-23T00:09:56;101618.50;;;23.62;32.16
68366;BME280;55283;51.466;5.478;2022-09-23T00:12:23;101623.34;;;23.61;32.02
68366;BME280;55283;51.466;5.478;2022-09-23T00:14:51;101616.47;;;23.62;31.96
68366;BME280;55283;51.466;5.478;2022-09-23T00:17:16;101616.91;;;23.61;32.03
68366;BME280;55283;51.466;5.478;2022-09-23T00:19:45;101614.09;;;23.61;32.27
68366;BME280;55283;51.466;5.478;2022-09-23T00:22:10;101610.84;;;23.62;32.40
68366;BME280;55283;51.466;5.478;2022-09-23T00:24:38;101614.88;;;23.61;32.20
68366;BME280;55283;51.466;5.478;2022-09-23T00:27:04;101607.69;;;23.60;32.37
68366;BME280;55283;51.466;5.478;2022-09-23T00:29:30;101609.72;;;23.60;32.12
68366;BME280;55283;51.466;5.478;2022-09-23T00:32:01;101602.06;;;23.60;32.08
68366;BME280;55283;51.466;5.478;2022-09-23T00:34:26;101603.28;;;23.59;31.87
68366;BME280;55283;51.466;5.478;2022-09-23T00:36:52;101600.03;;;23.61;32.24
68366;BME280;55283;51.466;5.478;2022-09-23T00:39:17;101596.44;;;23.60;32.24
68366;BME280;55283;51.466;5.478;2022-09-23T00:41:45;101598.78;;;23.62;31.90
68366;BME280;55283;51.466;5.478;2022-09-23T00:45:02;101596.44;;;23.60;32.10
68366;BME280;55283;51.466;5.478;2022-09-23T00:50:31;101590.09;;;23.56;31.75
68366;BME280;55283;51.466;5.478;2022-09-23T00:53:04;101594.50;;;23.57;31.82
68366;BME280;55283;51.466;5.478;2022-09-23T00:58:02;101589.78;;;23.54;31.81
68366;BME280;55283;51.466;5.478;2022-09-23T01:00:28;101586.97;;;23.54;31.66
68366;BME280;55283;51.466;5.478;2022-09-23T01:02:56;101595.41;;;23.54;31.89
68366;BME280;55283;51.466;5.478;2022-09-23T01:05:22;101581.34;;;23.54;31.88
68366;BME280;55283;51.466;5.478;2022-09-23T01:07:48;101584.94;;;23.55;31.87
68366;BME280;55283;51.466;5.478;2022-09-23T01:10:15;101586.97;;;23.54;31.61
68366;BME280;55283;51.466;5.478;2022-09-23T01:15:27;101582.13;;;23.55;31.98
68366;BME280;55283;51.466;5.478;2022-09-23T01:20:55;101578.06;;;23.56;32.19
68366;BME280;55283;51.466;5.478;2022-09-23T01:38:10;101571.28;;;23.53;32.14
68366;BME280;55283;51.466;5.478;2022-09-23T01:40:49;101564.88;;;23.53;32.12
68366;BME280;55283;51.466;5.478;2022-09-23T01:43:26;101560.94;;;23.50;32.22
68366;BME280;55283;51.466;5.478;2022-09-23T01:45:57;101560.94;;;23.50;32.19
68366;BME280;55283;51.466;5.478;2022-09-23T01:48:45;101567.34;;;23.50;32.33
68366;BME280;55283;51.466;5.478;2022-09-23T01:51:26;101566.56;;;23.50;31.96
68366;BME280;55283;51.466;5.478;2022-09-23T01:59:24;101561.72;;;23.50;32.30
68366;BME280;55283;51.466;5.478;2022-09-23T02:04:31;101561.41;;;23.48;32.32
68366;BME280;55283;51.466;5.478;2022-09-23T02:07:47;101558.13;;;23.50;32.07
68366;BME280;55283;51.466;5.478;2022-09-23T02:10:12;101556.97;;;23.47;32.54
68366;BME280;55283;51.466;5.478;2022-09-23T02:12:42;101547.75;;;23.47;32.21
68366;BME280;55283;51.466;5.478;2022-09-23T02:15:23;101553.75;;;23.49;31.97
68366;BME280;55283;51.466;5.478;2022-09-23T02:17:55;101551.72;;;23.49;32.14
68366;BME280;55283;51.466;5.478;2022-09-23T02:20:33;101552.50;;;23.50;31.97
68366;BME280;55283;51.466;5.478;2022-09-23T02:25:44;101553.75;;;23.49;32.15
68366;BME280;55283;51.466;5.478;2022-09-23T02:28:18;101549.34;;;23.48;32.07
68366;BME280;55283;51.466;5.478;2022-09-23T02:31:20;101538.09;;;23.48;32.12
68366;BME280;55283;51.466;5.478;2022-09-23T02:33:53;101545.28;;;23.49;32.15
68366;BME280;55283;51.466;5.478;2022-09-23T02:36:34;101538.09;;;23.48;32.03
68366;BME280;55283;51.466;5.478;2022-09-23T02:39:07;101536.50;;;23.47;31.94
68366;BME280;55283;51.466;5.478;2022-09-23T02:42:01;101524.47;;;23.46;32.09
68366;BME280;55283;51.466;5.478;2022-09-23T02:44:28;101528.53;;;23.45;32.15
68366;BME280;55283;51.466;5.478;2022-09-23T02:46:56;101519.28;;;23.45;32.14
68366;BME280;55283;51.466;5.478;2022-09-23T02:49:25;101519.63;;;23.47;32.20
68366;BME280;55283;51.466;5.478;2022-09-23T02:51:51;101509.25;;;23.44;32.02
68366;BME280;55283;51.466;5.478;2022-09-23T02:54:29;101516.81;;;23.47;31.84
68366;BME280;55283;51.466;5.478;2022-09-23T02:56:55;101512.84;;;23.44;32.02
68366;BME280;55283;51.466;5.478;2022-09-23T02:59:22;101512.41;;;23.46;31.94
68366;BME280;55283;51.466;5.478;2022-09-23T03:10:23;101513.66;;;23.45;32.21
68366;BME280;55283;51.466;5.478;2022-09-23T03:15:45;101506.91;;;23.42;32.21
68366;BME280;55283;51.466;5.478;2022-09-23T03:18:14;101503.63;;;23.44;32.10
68366;BME280;55283;51.466;5.478;2022-09-23T03:20:51;101498.91;;;23.41;32.16
68366;BME280;55283;51.466;5.478;2022-09-23T03:23:26;101501.28;;;23.42;32.27
68366;BME280;55283;51.466;5.478;2022-09-23T03:25:54;101487.09;;;23.46;32.25
68366;BME280;55283;51.466;5.478;2022-09-23T03:28:24;101493.97;;;23.45;32.34
68366;BME280;55283;51.466;5.478;2022-09-23T03:30:51;101496.78;;;23.45;32.15
68366;BME280;55283;51.466;5.478;2022-09-23T03:33:19;101481.91;;;23.44;32.26
68366;BME280;55283;51.466;5.478;2022-09-23T03:35:54;101484.28;;;23.46;32.47
68366;BME280;55283;51.466;5.478;2022-09-23T03:38:44;101488.34;;;23.45;32.24
68366;BME280;55283;51.466;5.478;2022-09-23T03:41:25;101487.09;;;23.46;32.20
68366;BME280;55283;51.466;5.478;2022-09-23T03:43:55;101476.63;;;23.34;32.18
68366;BME280;55283;51.466;5.478;2022-09-23T03:46:26;101483.94;;;23.44;32.23
68366;BME280;55283;51.466;5.478;2022-09-23T03:49:04;101489.56;;;23.44;32.17
68366;BME280;55283;51.466;5.478;2022-09-23T03:51:33;101490.34;;;23.44;32.14
68366;BME280;55283;51.466;5.478;2022-09-23T03:54:01;101482.38;;;23.43;32.15
68366;BME280;55283;51.466;5.478;2022-09-23T03:56:32;101484.72;;;23.44;32.08
68366;BME280;55283;51.466;5.478;2022-09-23T03:58:58;101479.56;;;23.43;31.95
68366;BME280;55283;51.466;5.478;2022-09-23T04:01:23;101480.34;;;23.43;32.05
68366;BME280;55283;51.466;5.478;2022-09-23T04:03:50;101479.09;;;23.44;31.97
68366;BME280;55283;51.466;5.478;2022-09-23T04:06:19;101478.78;;;23.42;31.97
68366;BME280;55283;51.466;5.478;2022-09-23T04:08:44;101478.78;;;23.42;32.08
68366;BME280;55283;51.466;5.478;2022-09-23T04:11:10;101479.56;;;23.43;32.04
68366;BME280;55283;51.466;5.478;2022-09-23T04:13:35;101474.72;;;23.43;31.97
68366;BME280;55283;51.466;5.478;2022-09-23T04:16:01;101464.72;;;23.42;31.89
68366;BME280;55283;51.466;5.478;2022-09-23T04:18:26;101473.94;;;23.43;31.95
68366;BME280;55283;51.466;5.478;2022-09-23T04:20:58;101477.97;;;23.42;32.03
68366;BME280;55283;51.466;5.478;2022-09-23T04:23:25;101471.53;;;23.41;32.09
68366;BME280;55283;51.466;5.478;2022-09-23T04:25:51;101470.34;;;23.42;32.08
68366;BME280;55283;51.466;5.478;2022-09-23T04:28:16;101477.97;;;23.42;32.06
68366;BME280;55283;51.466;5.478;2022-09-23T04:30:42;101478.31;;;23.44;32.18
68366;BME280;55283;51.466;5.478;2022-09-23T04:33:12;101474.38;;;23.41;32.15
68366;BME280;55283;51.466;5.478;2022-09-23T04:35:38;101470.34;;;23.42;32.19
68366;BME280;55283;51.466;5.478;2022-09-23T04:38:05;101467.94;;;23.41;32.17
68366;BME280;55283;51.466;5.478;2022-09-23T04:40:30;101467.53;;;23.42;32.15
68366;BME280;55283;51.466;5.478;2022-09-23T04:42:56;101468.72;;;23.41;32.02
68366;BME280;55283;51.466;5.478;2022-09-23T04:45:22;101464.78;;;23.39;32.01
68366;BME280;55283;51.466;5.478;2022-09-23T04:47:47;101465.13;;;23.41;31.83
68366;BME280;55283;51.466;5.478;2022-09-23T04:50:12;101455.91;;;23.40;31.81
68366;BME280;55283;51.466;5.478;2022-09-23T04:52:38;101461.53;;;23.40;31.84
68366;BME280;55283;51.466;5.478;2022-09-23T04:55:03;101470.75;;;23.41;31.87
68366;BME280;55283;51.466;5.478;2022-09-23T04:57:29;101463.56;;;23.40;31.98
68366;BME280;55283;51.466;5.478;2022-09-23T04:59:54;101467.94;;;23.41;32.02
68366;BME280;55283;51.466;5.478;2022-09-23T05:02:23;101454.34;;;23.39;31.96
68366;BME280;55283;51.466;5.478;2022-09-23T05:04:49;101452.31;;;23.40;31.78
68366;BME280;55283;51.466;5.478;2022-09-23T05:07:15;101449.16;;;23.38;31.78
68366;BME280;55283;51.466;5.478;2022-09-23T05:09:43;101447.91;;;23.39;31.78
68366;BME280;55283;51.466;5.478;2022-09-23T05:12:11;101449.94;;;23.38;31.76
68366;BME280;55283;51.466;5.478;2022-09-23T05:14:37;101457.16;;;23.39;31.79
68366;BME280;55283;51.466;5.478;2022-09-23T05:17:04;101453.53;;;23.39;31.79
68366;BME280;55283;51.466;5.478;2022-09-23T05:19:29;101456.81;;;23.37;32.00
68366;BME280;55283;51.466;5.478;2022-09-23T05:21:54;101457.94;;;23.40;31.94
68366;BME280;55283;51.466;5.478;2022-09-23T05:24:20;101458.38;;;23.38;31.83
68366;BME280;55283;51.466;5.478;2022-09-23T05:26:47;101466.81;;;23.38;32.17
68366;BME280;55283;51.466;5.478;2022-09-23T05:29:12;101464.78;;;23.39;32.05
68366;BME280;55283;51.466;5.478;2022-09-23T05:31:37;101463.88;;;23.42;31.87
68366;BME280;55283;51.466;5.478;2022-09-23T05:34:03;101470.66;;;23.44;32.33
68366;BME280;55283;51.466;5.478;2022-09-23T05:36:31;101468.31;;;23.43;31.60
68366;BME280;55283;51.466;5.478;2022-09-23T05:38:57;101470.09;;;23.37;31.68
68366;BME280;55283;51.466;5.478;2022-09-23T05:41:23;101472.44;;;23.38;32.04
68366;BME280;55283;51.466;5.478;2022-09-23T05:43:50;101487.66;;;23.41;31.85
68366;BME280;55283;51.466;5.478;2022-09-23T05:46:18;101474.03;;;23.39;31.79
68366;BME280;55283;51.466;5.478;2022-09-23T05:48:44;101474.38;;;23.41;31.94
68366;BME280;55283;51.466;5.478;2022-09-23T05:51:23;101478.31;;;23.44;31.88
68366;BME280;55283;51.466;5.478;2022-09-23T05:53:54;101477.88;;;23.45;32.01
68366;BME280;55283;51.466;5.478;2022-09-23T05:56:22;101476.28;;;23.44;32.34
68366;BME280;55283;51.466;5.478;2022-09-23T05:58:52;101467.63;;;23.52;32.30
68366;BME280;55283;51.466;5.478;2022-09-23T06:01:19;101473.75;;;23.63;31.89
68366;BME280;55283;51.466;5.478;2022-09-23T06:03:49;101481.03;;;23.60;32.05
68366;BME280;55283;51.466;5.478;2022-09-23T06:06:26;101475.75;;;23.62;31.91
68366;BME280;55283;51.466;5.478;2022-09-23T06:08:51;101478.34;;;23.57;32.72
68366;BME280;55283;51.466;5.478;2022-09-23T06:11:20;101478.66;;;23.59;32.56
68366;BME280;55283;51.466;5.478;2022-09-23T06:13:46;101478.22;;;23.60;32.68
68366;BME280;55283;51.466;5.478;2022-09-23T06:16:13;101478.66;;;23.59;33.03
68366;BME280;55283;51.466;5.478;2022-09-23T06:18:43;101473.81;;;23.59;32.66
68366;BME280;55283;51.466;5.478;2022-09-23T06:21:12;101471.84;;;23.31;31.22
68366;BME280;55283;51.466;5.478;2022-09-23T06:23:38;101468.97;;;23.05;29.94
68366;BME280;55283;51.466;5.478;2022-09-23T06:26:11;101467.63;;;22.80;29.97
68366;BME280;55283;51.466;5.478;2022-09-23T06:28:40;101465.78;;;22.57;29.46
68366;BME280;55283;51.466;5.478;2022-09-23T06:31:10;101460.28;;;22.54;29.56
68366;BME280;55283;51.466;5.478;2022-09-23T06:33:36;101458.13;;;22.29;29.64
68366;BME280;55283;51.466;5.478;2022-09-23T06:36:05;101470.22;;;22.09;29.77
68366;BME280;55283;51.466;5.478;2022-09-23T06:38:31;101462.22;;;22.08;29.91
68366;BME280;55283;51.466;5.478;2022-09-23T06:41:00;101467.84;;;21.91;30.00
68366;BME280;55283;51.466;5.478;2022-09-23T06:43:32;101468.03;;;21.81;29.97
68366;BME280;55283;51.466;5.478;2022-09-23T06:45:59;101470.34;;;21.86;30.08
68366;BME280;55283;51.466;5.478;2022-09-23T06:48:26;101459.00;;;21.73;30.01
68366;BME280;55283;51.466;5.478;2022-09-23T06:50:52;101463.91;;;21.69;30.27
68366;BME280;55283;51.466;5.478;2022-09-23T06:53:18;101467.69;;;21.79;30.36
68366;BME280;55283;51.466;5.478;2022-09-23T06:55:44;101464.06;;;21.98;30.22
68366;BME280;55283;51.466;5.478;2022-09-23T06:58:09;101457.47;;;22.05;30.40
68366;BME280;55283;51.466;5.478;2022-09-23T07:00:36;101469.34;;;22.12;30.06
68366;BME280;55283;51.466;5.478;2022-09-23T07:03:10;101466.00;;;22.18;30.39
68366;BME280;55283;51.466;5.478;2022-09-23T07:05:36;101467.59;;;22.19;30.84
68366;BME280;55283;51.466;5.478;2022-09-23T07:08:06;101472.22;;;22.25;30.91
68366;BME280;55283;51.466;5.478;2022-09-23T07:10:34;101475.03;;;22.25;31.21
68366;BME280;55283;51.466;5.478;2022-09-23T07:13:01;101469.78;;;22.27;30.58
68366;BME280;55283;51.466;5.478;2022-09-23T07:15:27;101469.69;;;22.31;30.69
68366;BME280;55283;51.466;5.478;2022-09-23T07:17:52;101466.88;;;22.31;30.17
68366;BME280;55283;51.466;5.478;2022-09-23T07:20:21;101467.66;;;22.31;30.61
68366;BME280;55283;51.466;5.478;2022-09-23T07:22:50;101462.84;;;22.32;30.50
68366;BME280;55283;51.466;5.478;2022-09-23T07:25:34;101469.69;;;22.31;30.69
68366;BME280;55283;51.466;5.478;2022-09-23T07:27:59;101465.56;;;22.35;30.53
68366;BME280;55283;51.466;5.478;2022-09-23T07:30:25;101463.91;;;22.38;31.04
68366;BME280;55283;51.466;5.478;2022-09-23T07:32:57;101458.97;;;22.42;31.13
68366;BME280;55283;51.466;5.478;2022-09-23T07:35:22;101464.94;;;22.44;30.31
68366;BME280;55283;51.466;5.478;2022-09-23T07:37:49;101458.44;;;22.47;31.15
68366;BME280;55283;51.466;5.478;2022-09-23T07:40:14;101467.22;;;22.49;30.40
68366;BME280;55283;51.466;5.478;2022-09-23T07:42:42;101467.81;;;22.57;31.30
68366;BME280;55283;51.466;5.478;2022-09-23T07:45:08;101457.28;;;22.61;31.10
68366;BME280;55283;51.466;5.478;2022-09-23T07:47:34;101467.66;;;22.64;31.05
68366;BME280;55283;51.466;5.478;2022-09-23T07:49:59;101459.03;;;22.71;31.37
68366;BME280;55283;51.466;5.478;2022-09-23T07:52:25;101458.50;;;22.76;31.09
68366;BME280;55283;51.466;5.478;2022-09-23T07:54:51;101468.31;;;22.85;31.07
68366;BME280;55283;51.466;5.478;2022-09-23T07:57:17;101470.94;;;22.92;30.75
68366;BME280;55283;51.466;5.478;2022-09-23T07:59:42;101475.34;;;22.93;31.19
68366;BME280;55283;51.466;5.478;2022-09-23T08:02:09;101478.81;;;22.97;31.07
68366;BME280;55283;51.466;5.478;2022-09-23T08:04:35;101472.31;;;23.00;31.30
68366;BME280;55283;51.466;5.478;2022-09-23T08:07:04;101471.19;;;22.97;31.51
68366;BME280;55283;51.466;5.478;2022-09-23T08:09:35;101474.00;;;22.97;31.13
68366;BME280;55283;51.466;5.478;2022-09-23T08:12:06;101471.53;;;22.99;31.18
68366;BME280;55283;51.466;5.478;2022-09-23T08:14:31;101470.63;;;23.02;31.33
68366;BME280;55283;51.466;5.478;2022-09-23T08:16:57;101468.59;;;23.03;31.28
68366;BME280;55283;51.466;5.478;2022-09-23T08:19:25;101475.81;;;23.04;31.01
68366;BME280;55283;51.466;5.478;2022-09-23T08:21:51;101470.53;;;23.06;31.09
68366;BME280;55283;51.466;5.478;2022-09-23T08:24:18;101478.44;;;23.11;31.22
68366;BME280;55283;51.466;5.478;2022-09-23T08:26:45;101473.25;;;23.10;31.21
68366;BME280;55283;51.466;5.478;2022-09-23T08:29:12;101472.34;;;23.13;31.14
68366;BME280;55283;51.466;5.478;2022-09-23T08:31:40;101479.09;;;23.15;31.06
68366;BME280;55283;51.466;5.478;2022-09-23T08:34:06;101470.34;;;23.13;31.19
68366;BME280;55283;51.466;5.478;2022-09-23T08:36:38;101470.66;;;23.15;31.15
68366;BME280;55283;51.466;5.478;2022-09-23T08:39:05;101472.69;;;23.15;31.11
68366;BME280;55283;51.466;5.478;2022-09-23T08:47:08;101478.31;;;23.15;30.81
68366;BME280;55283;51.466;5.478;2022-09-23T08:49:50;101478.22;;;23.18;31.13
68366;BME280;55283;51.466;5.478;2022-09-23T08:54:52;101475.06;;;23.16;31.11
68366;BME280;55283;51.466;5.478;2022-09-23T08:57:44;101482.94;;;23.21;30.99
68366;BME280;55283;51.466;5.478;2022-09-23T09:00:30;101481.72;;;23.22;31.06
68366;BME280;55283;51.466;5.478;2022-09-23T09:03:02;101483.41;;;23.20;31.14
68366;BME280;55283;51.466;5.478;2022-09-23T09:05:29;101478.44;;;23.24;31.04
68366;BME280;55283;51.466;5.478;2022-09-23T09:07:57;101472.41;;;23.25;30.98
68366;BME280;55283;51.466;5.478;2022-09-23T09:10:28;101470.72;;;23.28;31.15
68366;BME280;55283;51.466;5.478;2022-09-23T09:13:18;101471.84;;;23.31;31.06
68366;BME280;55283;51.466;5.478;2022-09-23T09:16:09;101456.97;;;23.30;31.22
68366;BME280;55283;51.466;5.478;2022-09-23T09:18:47;101459.34;;;23.32;31.15
68366;BME280;55283;51.466;5.478;2022-09-23T09:21:16;101456.03;;;23.37;31.09
68366;BME280;55283;51.466;5.478;2022-09-23T09:26:25;101445.09;;;23.39;31.13
68366;BME280;55283;51.466;5.478;2022-09-23T09:28:59;101451.84;;;23.41;31.23
68366;BME280;55283;51.466;5.478;2022-09-23T09:31:32;101452.31;;;23.40;31.06
68366;BME280;55283;51.466;5.478;2022-09-23T09:34:05;101455.44;;;23.42;31.16
68366;BME280;55283;51.466;5.478;2022-09-23T09:39:30;101452.19;;;23.43;31.23
68366;BME280;55283;51.466;5.478;2022-09-23T09:41:55;101445.78;;;23.43;31.19
68366;BME280;55283;51.466;5.478;2022-09-23T09:44:34;101436.09;;;23.44;31.32
68366;BME280;55283;51.466;5.478;2022-09-23T09:52:23;101440.16;;;23.56;31.15
68366;BME280;55283;51.466;5.478;2022-09-23T09:54:51;101437.69;;;23.58;31.02
68366;BME280;55283;51.466;5.478;2022-09-23T10:02:51;101444.00;;;23.62;31.00
68366;BME280;55283;51.466;5.478;2022-09-23T10:08:33;101443.22;;;23.61;31.07
68366;BME280;55283;51.466;5.478;2022-09-23T10:13:37;101441.97;;;23.62;31.17
68366;BME280;55283;51.466;5.478;2022-09-23T10:16:03;101442.75;;;23.50;30.94
68366;BME280;55283;51.466;5.478;2022-09-23T10:21:14;101428.69;;;23.50;31.15
68366;BME280;55283;51.466;5.478;2022-09-23T10:23:50;101425.44;;;23.52;31.21
68366;BME280;55283;51.466;5.478;2022-09-23T10:26:25;101425.75;;;23.54;31.19
68366;BME280;55283;51.466;5.478;2022-09-23T10:28:53;101419.69;;;23.55;31.34
68366;BME280;55283;51.466;5.478;2022-09-23T10:31:32;101418.13;;;23.54;31.22
68366;BME280;55283;51.466;5.478;2022-09-23T10:34:19;101430.81;;;23.59;31.42
68366;BME280;55283;51.466;5.478;2022-09-23T10:36:57;101427.81;;;23.66;32.22
68366;BME280;55283;51.466;5.478;2022-09-23T10:39:26;101430.63;;;23.66;31.85
68366;BME280;55283;51.466;5.478;2022-09-23T10:45:26;101430.63;;;23.66;31.90
68366;BME280;55283;51.466;5.478;2022-09-23T10:48:46;101432.19;;;23.67;32.28
68366;BME280;55283;51.466;5.478;2022-09-23T10:51:44;101430.81;;;23.59;32.49
68366;BME280;55283;51.466;5.478;2022-09-23T10:56:53;101431.06;;;23.64;32.70
68366;BME280;55283;51.466;5.478;2022-09-23T11:02:39;101420.69;;;23.61;31.96
68366;BME280;55283;51.466;5.478;2022-09-23T11:13:56;101423.84;;;23.63;32.03
68366;BME280;55283;51.466;5.478;2022-09-23T11:16:19;101421.59;;;23.71;31.47
68366;BME280;55283;51.466;5.478;2022-09-23T11:24:29;101409.09;;;23.59;30.96
68366;BME280;55283;51.466;5.478;2022-09-23T11:30:09;101399.44;;;23.60;30.59
68366;BME280;55283;51.466;5.478;2022-09-23T11:32:43;101400.56;;;23.63;30.43
68366;BME280;55283;51.466;5.478;2022-09-23T11:35:27;101404.59;;;23.62;30.37
68366;BME280;55283;51.466;5.478;2022-09-23T11:38:09;101404.16;;;23.63;30.10
68366;BME280;55283;51.466;5.478;2022-09-23T11:40:37;101402.91;;;23.64;30.12
68366;BME280;55283;51.466;5.478;2022-09-23T11:43:20;101396.38;;;23.67;30.08
68366;BME280;55283;51.466;5.478;2022-09-23T11:45:52;101394.25;;;23.71;30.13
68366;BME280;55283;51.466;5.478;2022-09-23T11:48:36;101388.28;;;23.69;29.85
68366;BME280;55283;51.466;5.478;2022-09-23T11:51:24;101387.94;;;23.67;30.35
68366;BME280;55283;51.466;5.478;2022-09-23T11:54:02;101383.56;;;23.66;30.52
68366;BME280;55283;51.466;5.478;2022-09-23T11:56:41;101383.09;;;23.68;30.50
68366;BME280;55283;51.466;5.478;2022-09-23T12:01:51;101387.94;;;23.67;30.71
68366;BME280;55283;51.466;5.478;2022-09-23T12:04:33;101380.19;;;23.71;30.43
68366;BME280;55283;51.466;5.478;2022-09-23T12:07:16;101372.06;;;23.73;30.67
68366;BME280;55283;51.466;5.478;2022-09-23T12:10:06;101373.97;;;23.77;30.67
68366;BME280;55283;51.466;5.478;2022-09-23T12:12:43;101374.31;;;23.79;30.61
68366;BME280;55283;51.466;5.478;2022-09-23T12:18:40;101370.84;;;23.75;30.78
68366;BME280;55283;51.466;5.478;2022-09-23T12:26:22;101365.75;;;23.69;31.04
68366;BME280;55283;51.466;5.478;2022-09-23T12:28:53;101369.59;;;23.76;30.84
68366;BME280;55283;51.466;5.478;2022-09-23T12:31:24;101364.41;;;23.74;30.83
68366;BME280;55283;51.466;5.478;2022-09-23T12:34:00;101366.88;;;23.72;30.98
68366;BME280;55283;51.466;5.478;2022-09-23T12:36:31;101364.84;;;23.72;31.04
68366;BME280;55283;51.466;5.478;2022-09-23T12:39:06;101359.22;;;23.72;30.94
68366;BME280;55283;51.466;5.478;2022-09-23T12:41:45;101359.56;;;23.75;31.05
68366;BME280;55283;51.466;5.478;2022-09-23T12:44:37;101359.22;;;23.72;31.09
68366;BME280;55283;51.466;5.478;2022-09-23T12:49:54;101357.88;;;23.77;30.84
68366;BME280;55283;51.466;5.478;2022-09-23T12:52:32;101355.63;;;23.72;31.23
68366;BME280;55283;51.466;5.478;2022-09-23T12:57:48;101348.19;;;23.78;31.32
68366;BME280;55283;51.466;5.478;2022-09-23T13:00:22;101344.59;;;23.78;31.07
68366;BME280;55283;51.466;5.478;2022-09-23T13:02:54;101354.25;;;23.77;30.80
68366;BME280;55283;51.466;5.478;2022-09-23T13:06:02;101357.06;;;23.77;31.03
68366;BME280;55283;51.466;5.478;2022-09-23T13:08:53;101350.34;;;23.74;31.12
68366;BME280;55283;51.466;5.478;2022-09-23T13:11:25;101353.47;;;23.76;31.01
68366;BME280;55283;51.466;5.478;2022-09-23T13:13:54;101359.88;;;23.77;31.07
68366;BME280;55283;51.466;5.478;2022-09-23T13:19:04;101346.41;;;23.71;31.13
68366;BME280;55283;51.466;5.478;2022-09-23T13:27:17;101341.66;;;23.81;31.08
68366;BME280;55283;51.466;5.478;2022-09-23T13:30:16;101348.84;;;23.82;31.09
68366;BME280;55283;51.466;5.478;2022-09-23T13:33:04;101341.53;;;23.85;31.08
68366;BME280;55283;51.466;5.478;2022-09-23T13:35:35;101344.47;;;23.81;31.13
68366;BME280;55283;51.466;5.478;2022-09-23T13:38:09;101343.34;;;23.79;31.27
68366;BME280;55283;51.466;5.478;2022-09-23T13:40:35;101337.59;;;23.82;31.34
68366;BME280;55283;51.466;5.478;2022-09-23T13:43:10;101323.53;;;23.69;31.43
68366;BME280;55283;51.466;5.478;2022-09-23T13:45:39;101327.56;;;23.81;31.39
68366;BME280;55283;51.466;5.478;2022-09-23T13:48:10;101332.09;;;23.79;31.35
68366;BME280;55283;51.466;5.478;2022-09-23T13:50:38;101330.38;;;23.81;31.38
68366;BME280;55283;51.466;5.478;2022-09-23T13:53:29;101325.19;;;23.80;31.46
68366;BME280;55283;51.466;5.478;2022-09-23T13:56:00;101327.22;;;23.79;31.40
68366;BME280;55283;51.466;5.478;2022-09-23T13:58:29;101318.78;;;23.79;31.34
68366;BME280;55283;51.466;5.478;2022-09-23T14:00:54;101317.56;;;23.80;31.25
68366;BME280;55283;51.466;5.478;2022-09-23T14:03:27;101315.19;;;23.79;31.44
68366;BME280;55283;51.466;5.478;2022-09-23T14:05:54;101321.59;;;23.79;31.40
68366;BME280;55283;51.466;5.478;2022-09-23T14:08:21;101316.88;;;23.76;31.41
68366;BME280;55283;51.466;5.478;2022-09-23T14:10:46;101308.44;;;23.76;31.60
68366;BME280;55283;51.466;5.478;2022-09-23T14:13:19;101313.94;;;23.80;31.57
68366;BME280;55283;51.466;5.478;2022-09-23T14:15:46;101311.72;;;23.75;31.74
68366;BME280;55283;51.466;5.478;2022-09-23T14:18:20;101307.31;;;23.73;31.81
68366;BME280;55283;51.466;5.478;2022-09-23T14:20:57;101311.72;;;23.75;31.65
68366;BME280;55283;51.466;5.478;2022-09-23T14:23:22;101302.50;;;23.74;31.65
68366;BME280;55283;51.466;5.478;2022-09-23T14:25:49;101302.16;;;23.72;31.85
68366;BME280;55283;51.466;5.478;2022-09-23T14:28:17;101298.22;;;23.69;31.89
68366;BME280;55283;51.466;5.478;2022-09-23T14:30:44;101295.41;;;23.69;31.86
68366;BME280;55283;51.466;5.478;2022-09-23T14:33:14;101294.50;;;23.72;32.00
68366;BME280;55283;51.466;5.478;2022-09-23T14:35:46;101294.50;;;23.72;31.88
68366;BME280;55283;51.466;5.478;2022-09-23T14:38:24;101289.19;;;23.75;31.81
68366;BME280;55283;51.466;5.478;2022-09-23T14:41:15;101292.31;;;23.77;31.89
68366;BME280;55283;51.466;5.478;2022-09-23T14:44:01;101289.00;;;23.69;31.95
68366;BME280;55283;51.466;5.478;2022-09-23T14:46:29;101297.56;;;23.65;31.85
68366;BME280;55283;51.466;5.478;2022-09-23T14:51:47;101290.34;;;23.64;32.07
68366;BME280;55283;51.466;5.478;2022-09-23T14:57:16;101281.66;;;23.71;32.08
68366;BME280;55283;51.466;5.478;2022-09-23T15:00:33;101273.53;;;23.73;32.43
68366;BME280;55283;51.466;5.478;2022-09-23T15:02:36;101274.78;;;23.72;32.56
68366;BME280;55283;51.466;5.478;2022-09-23T15:05:19;101270.72;;;23.73;32.61
68366;BME280;55283;51.466;5.478;2022-09-23T15:07:54;101263.28;;;23.80;32.21
68366;BME280;55283;51.466;5.478;2022-09-23T15:10:35;101267.53;;;23.84;32.26
68366;BME280;55283;51.466;5.478;2022-09-23T15:13:14;101262.13;;;23.90;32.40
68366;BME280;55283;51.466;5.478;2022-09-23T15:15:41;101260.09;;;23.90;32.46
68366;BME280;55283;51.466;5.478;2022-09-23T15:18:14;101261.69;;;23.91;32.73
68366;BME280;55283;51.466;5.478;2022-09-23T15:20:51;101259.44;;;23.86;32.74
68366;BME280;55283;51.466;5.478;2022-09-23T15:26:08;101269.00;;;23.89;32.98
68366;BME280;55283;51.466;5.478;2022-09-23T15:28:34;101259.09;;;23.84;33.02
68366;BME280;55283;51.466;5.478;2022-09-23T15:31:00;101257.53;;;23.83;33.06
68366;BME280;55283;51.466;5.478;2022-09-23T15:33:25;101273.66;;;23.83;33.02